Time;durP1;ratioP1;P1;durP2;ratioP2;P2;SDS_P1;SDS_P2;PMS_P1;PMS_P2;Temp;Humidity;BMP_temperature;BMP_pressure;BME280_temperature;BME280_humidity;BME280_pressure;Samples;Min_cycle;Max_cycle;Signal;HPM_P1;HPM_P2
2023/08/19 00:00:29;;;;;;;15.52;6.85;;;24.10;99.90;;;;;;5211619;28;20029;-77
2023/08/19 00:03:00;;;;;;;16.45;7.10;;;24.10;99.90;;;;;;5210037;28;20022;-75
2023/08/19 00:05:30;;;;;;;17.65;7.65;;;24.20;99.90;;;;;;5209468;28;20035;-77
2023/08/19 00:08:03;;;;;;;18.45;7.03;;;24.20;99.90;;;;;;5209762;28;20120;-76
2023/08/19 00:10:33;;;;;;;14.63;6.95;;;24.10;99.90;;;;;;5209534;28;20134;-75
2023/08/19 00:13:04;;;;;;;19.83;7.65;;;24.30;99.90;;;;;;5210556;28;20120;-75
2023/08/19 00:15:36;;;;;;;17.67;7.50;;;24.20;99.90;;;;;;5210539;28;20037;-76
2023/08/19 00:18:07;;;;;;;18.13;7.93;;;24.20;99.90;;;;;;5211969;28;20049;-75
2023/08/19 00:20:37;;;;;;;21.90;7.80;;;24.20;99.90;;;;;;5208779;28;20463;-76
2023/08/19 00:23:08;;;;;;;17.77;7.07;;;24.30;99.90;;;;;;5212639;28;20033;-76
2023/08/19 00:25:39;;;;;;;14.98;7.25;;;24.10;99.90;;;;;;5211193;28;20036;-76
2023/08/19 00:28:10;;;;;;;18.58;6.88;;;24.20;99.90;;;;;;5211780;28;20059;-77
2023/08/19 00:30:41;;;;;;;19.40;7.72;;;24.20;99.90;;;;;;5212269;28;20033;-75
2023/08/19 00:33:11;;;;;;;15.63;7.50;;;24.20;99.90;;;;;;5211725;28;20604;-77
2023/08/19 00:35:42;;;;;;;21.90;7.63;;;24.30;99.90;;;;;;5211204;28;20033;-76
2023/08/19 00:38:13;;;;;;;18.38;7.50;;;24.20;99.90;;;;;;5208970;28;20033;-76
2023/08/19 00:40:44;;;;;;;13.65;7.03;;;24.30;99.90;;;;;;5209895;28;20033;-76
2023/08/19 00:43:15;;;;;;;15.20;7.95;;;24.20;99.90;;;;;;5210740;28;20100;-76
2023/08/19 00:45:51;;;;;;;17.80;7.20;;;24.30;99.90;;;;;;5208932;28;20069;-77
2023/08/19 00:48:23;;;;;;;17.63;7.72;;;24.20;99.90;;;;;;5211294;28;20350;-75
2023/08/19 00:50:57;;;;;;;17.17;6.93;;;24.20;99.90;;;;;;5208831;28;20036;-76
2023/08/19 00:53:27;;;;;;;14.55;7.28;;;24.30;99.90;;;;;;5208997;28;20456;-77
2023/08/19 00:55:59;;;;;;;17.92;7.00;;;24.30;99.90;;;;;;5209509;28;20029;-76
2023/08/19 00:58:30;;;;;;;14.20;7.18;;;24.30;99.90;;;;;;5208684;28;20017;-78
2023/08/19 01:01:01;;;;;;;13.57;6.90;;;24.30;99.90;;;;;;5208430;28;20037;-74
2023/08/19 01:03:32;;;;;;;15.85;7.38;;;24.40;99.90;;;;;;5210361;28;20028;-76
2023/08/19 01:06:26;;;;;;;15.15;6.05;;;24.30;99.90;;;;;;5208819;28;20041;-75
2023/08/19 01:09:13;;;;;;;13.63;6.45;;;24.30;99.90;;;;;;5210313;28;20045;-75
2023/08/19 01:12:02;;;;;;;16.38;7.25;;;24.30;99.90;;;;;;5210721;28;20130;-76
2023/08/19 01:14:45;;;;;;;21.25;7.70;;;24.30;99.90;;;;;;5210214;28;20489;-76
2023/08/19 01:17:21;;;;;;;14.85;7.03;;;24.30;99.90;;;;;;5209787;28;21082;-77
2023/08/19 01:19:55;;;;;;;16.75;6.57;;;24.30;99.90;;;;;;5210315;28;20077;-75
2023/08/19 01:22:35;;;;;;;13.27;7.03;;;24.30;99.90;;;;;;5209294;28;20030;-76
2023/08/19 01:25:07;;;;;;;14.73;6.45;;;24.20;99.90;;;;;;5209238;28;20029;-77
2023/08/19 01:27:38;;;;;;;17.20;7.30;;;24.20;99.90;;;;;;5208960;28;20469;-76
2023/08/19 01:30:09;;;;;;;11.07;6.78;;;24.30;99.90;;;;;;5208382;28;20029;-74
2023/08/19 01:32:42;;;;;;;15.52;7.15;;;24.20;99.90;;;;;;5210438;28;20476;-77
2023/08/19 01:35:15;;;;;;;17.00;7.13;;;24.30;99.90;;;;;;5209729;28;20029;-76
2023/08/19 01:37:53;;;;;;;16.25;7.38;;;24.30;99.90;;;;;;5210440;28;20476;-77
2023/08/19 01:40:27;;;;;;;12.53;6.60;;;24.30;99.90;;;;;;5213561;28;20025;-75
2023/08/19 01:42:59;;;;;;;15.05;6.95;;;24.30;99.90;;;;;;5213399;28;20028;-74
2023/08/19 01:45:31;;;;;;;15.93;7.28;;;24.20;99.90;;;;;;5211795;28;20034;-75
2023/08/19 01:48:02;;;;;;;16.77;7.43;;;24.30;99.90;;;;;;5213207;28;20040;-77
2023/08/19 01:50:33;;;;;;;14.60;6.72;;;24.20;99.90;;;;;;5212425;28;20036;-75
2023/08/19 01:53:04;;;;;;;16.45;7.50;;;24.20;99.90;;;;;;5212399;28;20057;-75
2023/08/19 01:55:35;;;;;;;17.45;7.90;;;24.20;99.90;;;;;;5214156;28;20132;-74
2023/08/19 01:58:06;;;;;;;14.77;7.00;;;24.20;99.90;;;;;;5212487;28;20022;-76
2023/08/19 02:00:37;;;;;;;14.25;8.00;;;24.30;99.90;;;;;;5213876;28;20017;-76
2023/08/19 02:03:08;;;;;;;12.77;7.72;;;24.30;99.90;;;;;;5212527;28;20026;-77
2023/08/19 02:05:39;;;;;;;17.52;8.02;;;24.20;99.90;;;;;;5211815;28;20491;-75
2023/08/19 02:08:09;;;;;;;14.98;7.22;;;24.20;99.90;;;;;;5216468;28;20018;-77
2023/08/19 02:10:42;;;;;;;18.83;7.90;;;24.30;99.90;;;;;;5210442;28;20046;-76
2023/08/19 02:13:13;;;;;;;15.40;7.57;;;24.30;99.90;;;;;;5209933;28;20079;-74
2023/08/19 02:15:44;;;;;;;13.15;7.57;;;24.30;99.90;;;;;;5210947;28;20120;-76
2023/08/19 02:18:15;;;;;;;18.48;6.88;;;24.30;99.90;;;;;;5213682;28;20036;-74
2023/08/19 02:20:49;;;;;;;12.38;6.50;;;24.40;99.90;;;;;;5211913;28;20071;-76
2023/08/19 02:23:20;;;;;;;13.43;6.53;;;24.30;99.90;;;;;;5214650;28;20374;-76
2023/08/19 02:25:52;;;;;;;12.65;6.57;;;24.30;99.90;;;;;;5214261;28;20040;-75
2023/08/19 02:28:22;;;;;;;14.73;6.90;;;24.30;99.90;;;;;;5211847;28;20552;-75
2023/08/19 02:30:53;;;;;;;15.35;6.43;;;24.30;99.90;;;;;;5214506;28;20029;-76
2023/08/19 02:33:24;;;;;;;11.68;7.15;;;24.30;99.90;;;;;;5210466;28;20028;-77
2023/08/19 02:35:55;;;;;;;17.05;7.13;;;24.30;99.90;;;;;;5211711;28;20445;-74
2023/08/19 02:38:26;;;;;;;15.70;7.13;;;24.30;99.90;;;;;;5212310;28;20031;-77
2023/08/19 02:40:57;;;;;;;13.05;6.60;;;24.30;99.90;;;;;;5213186;28;20025;-74
2023/08/19 02:43:28;;;;;;;14.63;6.72;;;24.30;99.90;;;;;;5216290;28;20018;-77
2023/08/19 02:45:59;;;;;;;15.20;6.57;;;24.30;99.90;;;;;;5214054;28;20087;-76
2023/08/19 02:48:30;;;;;;;12.20;6.50;;;24.30;99.90;;;;;;5211559;28;20025;-75
2023/08/19 02:51:00;;;;;;;16.90;6.95;;;24.40;99.90;;;;;;5211925;28;20167;-75
2023/08/19 02:53:31;;;;;;;10.82;6.57;;;24.30;99.90;;;;;;5211089;28;20072;-75
2023/08/19 02:56:06;;;;;;;15.52;6.95;;;24.40;99.90;;;;;;5214348;28;20447;-75
2023/08/19 02:58:37;;;;;;;13.15;6.47;;;24.30;99.90;;;;;;5211411;28;20730;-75
2023/08/19 03:01:13;;;;;;;13.48;6.65;;;24.30;99.90;;;;;;5211563;28;20041;-74
2023/08/19 03:03:44;;;;;;;20.15;6.75;;;24.40;99.90;;;;;;5208526;28;20036;-74
2023/08/19 03:06:15;;;;;;;16.67;6.35;;;24.30;99.90;;;;;;5213688;28;20037;-74
2023/08/19 03:08:46;;;;;;;17.20;6.97;;;24.30;99.90;;;;;;5212687;28;20028;-76
2023/08/19 03:11:17;;;;;;;12.75;6.88;;;24.30;99.90;;;;;;5213364;28;20141;-75
2023/08/19 03:13:47;;;;;;;15.90;7.00;;;24.30;99.90;;;;;;5210280;28;20045;-76
2023/08/19 03:16:18;;;;;;;15.93;6.45;;;24.30;99.90;;;;;;5213334;28;20037;-75
2023/08/19 03:18:49;;;;;;;17.73;6.65;;;24.30;99.90;;;;;;5209383;28;20029;-74
2023/08/19 03:21:20;;;;;;;18.25;7.07;;;24.30;99.90;;;;;;5211523;28;20080;-76
2023/08/19 03:23:51;;;;;;;12.18;6.30;;;24.30;99.90;;;;;;5210570;28;20040;-77
2023/08/19 03:26:22;;;;;;;15.45;7.70;;;24.30;99.90;;;;;;5210035;28;20030;-76
2023/08/19 03:28:52;;;;;;;18.80;7.30;;;24.30;99.90;;;;;;5210844;28;20025;-74
2023/08/19 03:31:24;;;;;;;14.95;7.35;;;24.40;99.90;;;;;;5212077;28;20025;-75
2023/08/19 03:33:55;;;;;;;12.02;7.50;;;24.30;99.90;;;;;;5211079;28;20362;-75
2023/08/19 03:36:26;;;;;;;14.73;6.50;;;24.30;99.90;;;;;;5208418;28;20033;-76
2023/08/19 03:38:57;;;;;;;16.52;6.85;;;24.30;99.90;;;;;;5212916;28;20052;-76
2023/08/19 03:41:27;;;;;;;15.32;6.47;;;24.30;99.90;;;;;;5213177;28;20029;-76
2023/08/19 03:43:58;;;;;;;13.02;6.20;;;24.30;99.90;;;;;;5211252;28;20040;-75
2023/08/19 03:46:29;;;;;;;12.18;6.93;;;24.40;99.90;;;;;;5210942;28;20029;-75
2023/08/19 03:49:00;;;;;;;15.57;6.78;;;24.40;99.90;;;;;;5209730;28;20025;-74
2023/08/19 03:51:31;;;;;;;11.50;6.05;;;24.40;99.90;;;;;;5211938;28;20044;-75
2023/08/19 03:54:02;;;;;;;13.43;6.20;;;24.40;99.90;;;;;;5209450;28;20045;-76
2023/08/19 03:56:33;;;;;;;11.73;5.88;;;24.40;99.90;;;;;;5210868;28;20087;-75
2023/08/19 03:59:04;;;;;;;15.85;6.93;;;24.50;99.90;;;;;;5211688;28;20465;-77
2023/08/19 04:01:35;;;;;;;14.07;6.25;;;24.40;99.90;;;;;;5211331;28;20022;-74
2023/08/19 04:04:08;;;;;;;8.90;6.82;;;24.30;99.90;;;;;;5210875;28;20025;-75
2023/08/19 04:06:39;;;;;;;12.65;6.97;;;24.50;99.90;;;;;;5209773;28;20047;-76
2023/08/19 04:09:10;;;;;;;17.40;6.82;;;24.40;99.90;;;;;;5209844;28;20025;-77
2023/08/19 04:11:41;;;;;;;11.25;6.43;;;24.40;99.90;;;;;;5210259;28;20043;-75
2023/08/19 04:14:12;;;;;;;13.40;6.85;;;24.50;99.90;;;;;;5209346;28;20060;-75
2023/08/19 04:16:43;;;;;;;16.55;6.95;;;24.40;99.90;;;;;;5211527;28;20048;-76
2023/08/19 04:19:14;;;;;;;16.38;7.45;;;24.50;99.90;;;;;;5213809;28;20021;-77
2023/08/19 04:21:46;;;;;;;13.32;6.97;;;24.50;99.90;;;;;;5212822;28;20106;-77
2023/08/19 04:24:17;;;;;;;16.00;7.15;;;24.50;99.90;;;;;;5212425;28;20033;-76
2023/08/19 04:26:48;;;;;;;13.60;6.78;;;24.50;99.90;;;;;;5211755;28;20048;-76
2023/08/19 04:29:18;;;;;;;16.80;6.72;;;24.50;99.90;;;;;;5210952;28;20022;-77
2023/08/19 04:31:49;;;;;;;13.65;7.32;;;24.50;99.90;;;;;;5210274;28;20044;-74
2023/08/19 04:34:20;;;;;;;15.88;7.60;;;24.50;99.90;;;;;;5211893;28;20045;-75
2023/08/19 04:36:51;;;;;;;17.23;7.22;;;24.50;99.90;;;;;;5211883;28;20017;-75
2023/08/19 04:39:23;;;;;;;15.35;7.72;;;24.50;99.90;;;;;;5210545;28;20048;-75
2023/08/19 04:41:54;;;;;;;14.07;6.93;;;24.40;99.90;;;;;;5212736;28;20029;-76
2023/08/19 04:44:25;;;;;;;15.80;7.32;;;24.60;99.90;;;;;;5209734;28;20021;-76
2023/08/19 04:46:56;;;;;;;12.13;7.13;;;24.60;99.90;;;;;;5210181;28;20048;-76
2023/08/19 04:49:28;;;;;;;13.55;7.50;;;24.60;99.90;;;;;;5208768;28;20022;-75
2023/08/19 04:51:58;;;;;;;14.30;8.07;;;24.70;99.90;;;;;;5207864;28;20106;-76
2023/08/19 04:54:29;;;;;;;18.88;7.68;;;24.70;99.90;;;;;;5208466;28;20473;-75
2023/08/19 04:57:00;;;;;;;16.52;8.00;;;24.70;99.90;;;;;;5208213;28;20119;-75
2023/08/19 04:59:31;;;;;;;14.65;8.20;;;24.80;99.90;;;;;;5207966;28;20104;-75
2023/08/19 05:02:02;;;;;;;17.30;7.55;;;24.90;99.90;;;;;;5211109;28;20021;-75
2023/08/19 05:04:33;;;;;;;19.65;7.25;;;25.00;99.90;;;;;;5210632;28;20485;-75
2023/08/19 05:07:04;;;;;;;14.73;7.68;;;25.10;99.90;;;;;;5210385;28;20018;-76
2023/08/19 05:09:35;;;;;;;13.45;6.95;;;25.00;99.90;;;;;;5207690;28;20539;-74
2023/08/19 05:12:06;;;;;;;16.00;7.28;;;25.10;99.90;;;;;;5208123;28;20034;-75
2023/08/19 05:14:37;;;;;;;12.50;6.93;;;25.10;99.90;;;;;;5212052;28;20109;-74
2023/08/19 05:17:08;;;;;;;19.75;6.97;;;25.20;99.90;;;;;;5214503;28;20028;-74
2023/08/19 05:19:39;;;;;;;14.10;6.60;;;25.30;99.90;;;;;;5212870;28;20033;-76
2023/08/19 05:22:10;;;;;;;13.35;6.97;;;25.20;99.90;;;;;;5215354;28;20500;-77
2023/08/19 05:24:41;;;;;;;15.68;6.95;;;25.30;99.90;;;;;;5214189;28;20029;-76
2023/08/19 05:27:12;;;;;;;14.20;6.35;;;25.40;99.90;;;;;;5214684;28;20021;-75
2023/08/19 05:29:43;;;;;;;13.25;6.72;;;25.50;99.90;;;;;;5213393;28;20128;-74
2023/08/19 05:32:14;;;;;;;14.02;6.45;;;25.50;99.90;;;;;;5212881;28;20037;-77
2023/08/19 05:34:44;;;;;;;11.55;7.13;;;25.50;99.90;;;;;;5211927;28;20122;-76
2023/08/19 05:37:15;;;;;;;17.63;8.25;;;25.50;99.90;;;;;;5213090;28;20029;-75
2023/08/19 05:39:46;;;;;;;12.95;7.22;;;25.60;99.90;;;;;;5210175;28;20102;-76
2023/08/19 05:42:18;;;;;;;14.40;7.22;;;25.50;99.90;;;;;;5211666;28;20025;-77
2023/08/19 05:44:49;;;;;;;14.23;6.43;;;25.50;99.90;;;;;;5211366;28;20038;-76
2023/08/19 05:47:19;;;;;;;15.43;6.97;;;25.50;99.90;;;;;;5215214;28;20079;-76
2023/08/19 05:49:50;;;;;;;10.27;6.30;;;25.50;99.90;;;;;;5212651;28;20074;-75
2023/08/19 05:52:28;;;;;;;14.00;6.80;;;25.50;99.90;;;;;;5210188;28;20053;-76
2023/08/19 05:55:00;;;;;;;13.27;7.18;;;25.60;99.90;;;;;;5213157;28;20033;-75
2023/08/19 05:57:31;;;;;;;11.85;6.22;;;25.60;99.90;;;;;;5213121;28;20037;-75
2023/08/19 06:02:42;;;;;;;14.75;7.13;;;25.80;99.90;;;;;;5488401;23;20061;-77
2023/08/19 06:05:13;;;;;;;12.98;6.40;;;25.80;99.90;;;;;;5193623;28;20026;-76
2023/08/19 06:07:44;;;;;;;14.10;6.60;;;25.80;99.90;;;;;;5202988;28;20026;-76
2023/08/19 06:10:16;;;;;;;13.38;6.78;;;25.80;99.90;;;;;;5207152;28;20048;-77
2023/08/19 06:12:47;;;;;;;15.30;7.18;;;25.80;99.90;;;;;;5208334;28;20120;-76
2023/08/19 06:15:18;;;;;;;12.38;6.57;;;25.80;99.90;;;;;;5215577;28;20128;-76
2023/08/19 06:17:49;;;;;;;12.43;7.07;;;25.90;99.90;;;;;;5216481;28;20070;-75
2023/08/19 06:20:20;;;;;;;11.75;6.88;;;25.90;99.90;;;;;;5210738;28;20033;-76
2023/08/19 06:22:51;;;;;;;16.05;6.88;;;25.90;99.90;;;;;;5211089;28;20037;-76
2023/08/19 06:25:26;;;;;;;13.57;6.60;;;25.90;99.90;;;;;;5214185;28;20104;-77
2023/08/19 06:27:57;;;;;;;9.70;6.72;;;26.00;99.90;;;;;;5212164;28;20423;-76
2023/08/19 06:30:28;;;;;;;15.10;6.85;;;26.00;99.90;;;;;;5209902;28;20033;-76
2023/08/19 06:32:59;;;;;;;14.02;6.72;;;26.10;99.90;;;;;;5208108;28;20045;-77
2023/08/19 06:35:31;;;;;;;15.57;7.03;;;26.00;99.90;;;;;;5212304;28;20057;-76
2023/08/19 06:38:27;;;;;;;13.98;6.90;;;26.20;99.90;;;;;;5209773;28;20064;-76
2023/08/19 06:41:02;;;;;;;14.48;6.68;;;26.00;99.90;;;;;;5209980;28;20029;-76
2023/08/19 06:43:35;;;;;;;13.10;6.53;;;26.20;99.90;;;;;;5213434;28;20399;-76
2023/08/19 06:46:07;;;;;;;15.48;6.95;;;26.00;99.90;;;;;;5211024;28;20033;-75
2023/08/19 06:48:40;;;;;;;14.20;6.53;;;26.10;99.90;;;;;;5210735;28;20091;-75
2023/08/19 06:51:11;;;;;;;14.40;7.63;;;26.20;99.90;;;;;;5211148;28;20025;-75
2023/08/19 06:53:42;;;;;;;11.40;6.32;;;26.40;99.90;;;;;;5212407;28;20180;-75
2023/08/19 06:56:38;;;;;;;13.52;6.30;;;26.50;99.90;;;;;;5210604;28;20037;-75
2023/08/19 06:59:19;;;;;;;14.57;7.28;;;26.50;99.90;;;;;;5208266;28;20083;-76
2023/08/19 07:01:52;;;;;;;12.43;6.60;;;26.50;99.90;;;;;;5656440;23;20114;-75
2023/08/19 07:04:23;;;;;;;16.10;7.05;;;26.50;99.90;;;;;;5127137;28;20152;-76
2023/08/19 07:06:59;;;;;;;11.15;6.65;;;26.60;99.90;;;;;;5137409;28;20564;-77
2023/08/19 07:09:30;;;;;;;14.00;6.65;;;26.50;99.90;;;;;;5152841;28;20030;-78
2023/08/19 07:12:02;;;;;;;14.77;7.40;;;26.40;99.90;;;;;;5153148;28;20035;-78
2023/08/19 07:14:34;;;;;;;19.10;7.60;;;26.40;99.90;;;;;;5152805;28;20033;-78
2023/08/19 07:17:07;;;;;;;18.33;7.95;;;26.40;99.90;;;;;;5149162;28;20019;-76
2023/08/19 07:19:40;;;;;;;16.63;7.93;;;26.70;99.90;;;;;;5148964;28;20026;-76
2023/08/19 07:22:10;;;;;;;15.07;7.50;;;26.80;99.90;;;;;;5130346;28;20034;-77
2023/08/19 07:24:42;;;;;;;12.95;6.97;;;26.80;99.90;;;;;;5134275;28;20363;-76
2023/08/19 07:27:16;;;;;;;12.20;6.90;;;26.80;99.90;;;;;;5151812;28;20035;-77
2023/08/19 07:29:51;;;;;;;14.82;7.75;;;26.60;99.90;;;;;;5145107;28;20101;-76
2023/08/19 07:32:22;;;;;;;12.25;7.70;;;26.60;99.90;;;;;;5149720;28;20042;-77
2023/08/19 07:34:54;;;;;;;18.98;7.70;;;26.50;99.90;;;;;;5146367;28;20034;-76
2023/08/19 07:37:25;;;;;;;16.67;7.50;;;26.60;99.90;;;;;;5144357;28;20065;-76
2023/08/19 07:39:58;;;;;;;13.57;7.15;;;26.60;99.90;;;;;;5148260;28;20030;-77
2023/08/19 07:42:29;;;;;;;11.00;7.05;;;26.60;99.90;;;;;;5147970;28;20026;-77
2023/08/19 07:45:01;;;;;;;14.25;7.30;;;26.60;99.90;;;;;;5147105;28;20054;-76
2023/08/19 07:47:33;;;;;;;14.88;7.25;;;26.60;99.90;;;;;;5148301;28;20031;-77
2023/08/19 07:50:05;;;;;;;15.25;7.18;;;26.70;99.90;;;;;;5143925;28;20018;-76
2023/08/19 07:52:38;;;;;;;8.70;6.43;;;27.00;99.90;;;;;;5148833;28;20097;-77
2023/08/19 07:55:10;;;;;;;11.77;6.68;;;26.90;99.90;;;;;;5157204;28;20073;-76
2023/08/19 07:57:41;;;;;;;12.88;6.93;;;27.20;99.90;;;;;;5146926;28;20114;-77
2023/08/19 08:00:12;;;;;;;14.27;6.95;;;27.20;99.90;;;;;;5149629;28;20382;-75
2023/08/19 08:02:43;;;;;;;13.85;5.82;;;27.30;99.90;;;;;;5519783;23;20573;-78
2023/08/19 08:05:14;;;;;;;11.55;6.30;;;27.40;99.90;;;;;;5140095;28;20046;-77
2023/08/19 08:07:45;;;;;;;11.02;6.03;;;27.60;99.90;;;;;;5147848;28;20085;-76
2023/08/19 08:10:15;;;;;;;9.88;6.93;;;27.60;99.90;;;;;;5152493;28;20026;-75
2023/08/19 08:12:46;;;;;;;13.52;6.60;;;27.70;99.90;;;;;;5146921;28;20131;-76
2023/08/19 08:15:17;;;;;;;12.50;7.55;;;27.70;99.90;;;;;;5150556;28;20374;-76
2023/08/19 08:17:48;;;;;;;12.07;8.50;;;27.60;99.90;;;;;;5151520;28;20321;-76
2023/08/19 08:20:19;;;;;;;10.25;9.13;;;27.70;99.90;;;;;;5149006;28;20110;-77
2023/08/19 08:22:50;;;;;;;13.35;9.30;;;27.60;99.90;;;;;;5149420;28;20471;-76
2023/08/19 08:25:21;;;;;;;16.33;10.60;;;27.80;99.90;;;;;;5144847;28;20382;-76
2023/08/19 08:27:51;;;;;;;13.75;10.60;;;27.80;99.90;;;;;;5134749;28;20062;-78
2023/08/19 08:30:22;;;;;;;19.77;10.90;;;27.70;99.90;;;;;;5143548;28;20023;-76
2023/08/19 08:32:53;;;;;;;19.20;10.27;;;27.70;99.90;;;;;;5141562;28;20043;-77
2023/08/19 08:35:24;;;;;;;11.35;9.52;;;27.70;99.90;;;;;;5142977;28;20038;-78
2023/08/19 08:37:55;;;;;;;16.20;10.35;;;27.60;99.90;;;;;;5142736;28;20038;-77
2023/08/19 08:40:26;;;;;;;13.88;9.57;;;27.60;99.90;;;;;;5139484;28;20027;-76
2023/08/19 08:42:57;;;;;;;15.13;9.48;;;27.70;99.90;;;;;;5142651;28;20023;-77
2023/08/19 08:45:31;;;;;;;16.23;10.75;;;27.70;99.90;;;;;;5135878;28;20038;-76
2023/08/19 08:48:02;;;;;;;12.77;11.18;;;27.80;99.90;;;;;;5139728;28;20034;-77
2023/08/19 08:50:34;;;;;;;13.95;12.05;;;27.80;99.90;;;;;;5145399;28;20038;-77
2023/08/19 08:53:05;;;;;;;14.38;11.18;;;27.70;99.90;;;;;;5147327;28;20034;-76
2023/08/19 08:55:37;;;;;;;14.15;10.43;;;27.90;99.90;;;;;;5147834;28;20105;-77
2023/08/19 08:58:08;;;;;;;14.60;11.13;;;28.10;99.90;;;;;;5147763;28;20031;-77
2023/08/19 09:00:40;;;;;;;13.60;10.13;;;28.10;99.90;;;;;;5147341;28;20031;-76
2023/08/19 09:03:11;;;;;;;19.33;8.82;;;28.20;99.90;;;;;;5147497;28;20666;-77
2023/08/19 09:05:43;;;;;;;12.45;7.80;;;28.20;99.90;;;;;;5147149;28;20081;-76
2023/08/19 09:08:15;;;;;;;10.85;7.88;;;28.40;99.90;;;;;;5147519;28;20038;-77
2023/08/19 09:10:48;;;;;;;12.23;8.30;;;28.40;99.90;;;;;;5147257;28;20035;-77
2023/08/19 09:13:24;;;;;;;11.88;8.30;;;28.40;99.90;;;;;;5147505;28;20507;-77
2023/08/19 09:15:54;;;;;;;13.98;8.32;;;28.20;99.90;;;;;;5146133;28;20978;-76
2023/08/19 09:18:26;;;;;;;12.75;9.20;;;28.50;99.90;;;;;;5147271;28;20030;-78
2023/08/19 09:20:57;;;;;;;12.77;7.30;;;28.80;99.90;;;;;;5146659;28;20023;-76
2023/08/19 09:23:31;;;;;;;11.90;8.13;;;28.70;99.90;;;;;;5146875;28;20080;-77
2023/08/19 09:26:02;;;;;;;12.00;6.97;;;28.60;99.90;;;;;;5146101;28;20027;-77
2023/08/19 09:28:33;;;;;;;10.20;7.63;;;28.70;99.90;;;;;;5145716;28;20031;-77
2023/08/19 09:31:18;;;;;;;18.45;7.28;;;28.70;99.90;;;;;;5146851;28;20502;-76
2023/08/19 09:33:52;;;;;;;27.40;7.18;;;28.60;99.90;;;;;;5589648;23;20055;-77
2023/08/19 09:36:24;;;;;;;9.40;6.00;;;28.60;99.90;;;;;;5121558;29;21228;-76
2023/08/19 09:38:56;;;;;;;14.10;6.05;;;28.80;99.90;;;;;;5126081;29;20042;-75
2023/08/19 09:41:29;;;;;;;15.55;6.53;;;28.90;99.90;;;;;;5108363;29;20387;-75
2023/08/19 09:44:00;;;;;;;8.55;5.38;;;29.00;99.90;;;;;;5123399;29;20043;-75
2023/08/19 09:46:33;;;;;;;12.20;6.30;;;28.70;99.90;;;;;;5125549;29;20062;-76
2023/08/19 09:49:04;;;;;;;9.75;6.60;;;28.80;99.90;;;;;;5108897;29;20078;-76
2023/08/19 09:51:35;;;;;;;9.70;6.25;;;28.70;99.90;;;;;;5125815;29;20023;-75
2023/08/19 09:54:09;;;;;;;9.18;6.00;;;28.90;99.90;;;;;;5126160;29;20032;-76
2023/08/19 09:56:40;;;;;;;10.88;5.65;;;29.00;99.90;;;;;;5109168;29;20385;-75
2023/08/19 09:59:11;;;;;;;11.77;6.03;;;29.10;99.90;;;;;;5125840;28;20047;-75
2023/08/19 10:01:42;;;;;;;11.23;5.47;;;29.00;99.90;;;;;;5126309;29;20499;-76
2023/08/19 10:04:13;;;;;;;12.27;5.35;;;29.10;99.90;;;;;;5120819;29;20074;-76
2023/08/19 10:06:49;;;;;;;12.57;5.65;;;29.20;99.90;;;;;;5127068;29;20059;-76
2023/08/19 10:09:25;;;;;;;11.77;5.65;;;29.20;99.90;;;;;;5125237;29;20509;-76
2023/08/19 10:11:59;;;;;;;12.55;5.53;;;29.20;99.90;;;;;;5125133;29;20032;-75
2023/08/19 10:14:31;;;;;;;8.77;5.43;;;29.10;99.90;;;;;;5126420;28;20032;-75
2023/08/19 10:17:05;;;;;;;12.02;5.22;;;28.90;99.90;;;;;;5126608;28;20023;-76
2023/08/19 10:19:43;;;;;;;108.63;18.58;;;28.80;99.90;;;;;;5126658;28;20115;-76
2023/08/19 10:22:16;;;;;;;25.38;7.53;;;28.90;99.90;;;;;;5126219;28;20507;-76
2023/08/19 10:24:49;;;;;;;21.85;7.60;;;28.90;99.90;;;;;;5125408;29;20372;-76
2023/08/19 10:27:20;;;;;;;45.55;8.02;;;29.20;99.90;;;;;;5125053;29;20126;-76
2023/08/19 10:29:58;;;;;;;9.43;5.28;;;29.20;99.90;;;;;;5126424;28;20111;-76
2023/08/19 10:32:30;;;;;;;12.30;6.18;;;29.10;99.90;;;;;;5125395;28;20119;-77
2023/08/19 10:35:09;;;;;;;10.32;5.03;;;29.10;99.90;;;;;;5121734;29;20078;-76
2023/08/19 10:37:45;;;;;;;14.77;5.77;;;29.20;99.90;;;;;;5124035;29;20090;-76
2023/08/19 10:40:24;;;;;;;11.00;5.43;;;29.00;99.90;;;;;;5125478;29;20035;-76
2023/08/19 10:42:58;;;;;;;9.32;5.28;;;29.00;99.90;;;;;;5123986;29;20035;-76
2023/08/19 10:45:37;;;;;;;11.98;5.68;;;29.00;99.90;;;;;;5125978;29;20030;-76
2023/08/19 10:48:07;;;;;;;11.95;5.72;;;29.30;99.90;;;;;;5123149;29;20114;-76
2023/08/19 10:50:40;;;;;;;13.75;5.30;;;29.30;99.90;;;;;;5125906;29;20173;-75
2023/08/19 10:53:20;;;;;;;12.05;5.50;;;29.60;99.90;;;;;;5124837;29;20047;-75
2023/08/19 10:55:54;;;;;;;10.88;5.18;;;29.50;99.90;;;;;;5126328;29;20375;-76
2023/08/19 10:58:26;;;;;;;10.95;5.90;;;29.60;99.90;;;;;;5126273;29;20035;-76
2023/08/19 11:00:56;;;;;;;9.95;6.28;;;29.40;99.90;;;;;;5126003;29;20210;-76
2023/08/19 11:03:28;;;;;;;14.07;6.45;;;29.70;99.90;;;;;;5124510;28;20118;-75
2023/08/19 11:06:04;;;;;;;14.65;6.20;;;29.80;99.90;;;;;;5126364;29;20483;-76
2023/08/19 11:08:43;;;;;;;11.05;6.25;;;29.60;99.90;;;;;;5123819;29;20111;-75
2023/08/19 11:11:17;;;;;;;10.75;5.80;;;29.40;99.90;;;;;;5125458;28;20038;-76
2023/08/19 11:13:48;;;;;;;14.35;5.90;;;29.70;99.90;;;;;;5124282;29;20134;-76
2023/08/19 11:16:25;;;;;;;12.18;5.82;;;29.70;99.90;;;;;;5125914;29;20098;-76
2023/08/19 11:18:56;;;;;;;13.20;6.00;;;29.90;99.90;;;;;;5122491;29;20027;-76
2023/08/19 11:21:27;;;;;;;9.57;5.72;;;29.70;99.90;;;;;;5125553;28;20055;-76
2023/08/19 11:23:58;;;;;;;12.63;5.32;;;29.80;99.90;;;;;;5124556;29;20039;-76
2023/08/19 11:26:29;;;;;;;8.82;5.28;;;29.70;99.90;;;;;;5125192;28;20102;-76
2023/08/19 11:29:04;;;;;;;12.50;5.28;;;29.70;99.90;;;;;;5125131;28;20491;-76
2023/08/19 11:31:39;;;;;;;13.45;6.07;;;30.00;99.90;;;;;;5123154;29;20034;-75
2023/08/19 11:34:12;;;;;;;12.27;4.75;;;29.90;99.90;;;;;;5125164;28;20078;-75
2023/08/19 11:36:46;;;;;;;10.98;4.78;;;29.90;99.90;;;;;;5125145;29;20383;-75
2023/08/19 11:39:17;;;;;;;13.88;5.03;;;29.80;99.90;;;;;;5124109;29;20030;-75
2023/08/19 11:41:48;;;;;;;8.73;4.65;;;29.80;99.90;;;;;;5125449;29;20035;-76
2023/08/19 11:44:22;;;;;;;11.07;5.40;;;29.70;99.90;;;;;;5123854;29;20039;-76
2023/08/19 11:46:57;;;;;;;10.73;4.65;;;30.00;99.90;;;;;;5125442;28;20027;-76
2023/08/19 11:49:29;;;;;;;10.13;4.90;;;30.00;99.90;;;;;;5122942;29;20031;-76
2023/08/19 11:52:00;;;;;;;11.35;4.80;;;30.00;99.90;;;;;;5124260;28;20062;-76
2023/08/19 11:54:31;;;;;;;13.65;6.00;;;29.90;99.90;;;;;;5124855;29;20055;-75
2023/08/19 11:57:02;;;;;;;9.80;5.00;;;30.10;99.90;;;;;;5123790;29;20101;-76
2023/08/19 11:59:34;;;;;;;11.98;6.13;;;30.00;99.90;;;;;;5124558;28;20070;-76
2023/08/19 12:02:08;;;;;;;9.27;5.22;;;30.00;99.90;;;;;;5124209;28;20121;-77
2023/08/19 12:04:39;;;;;;;8.85;5.18;;;30.10;99.90;;;;;;5122711;29;20027;-77
2023/08/19 12:07:12;;;;;;;14.57;5.55;;;30.10;99.90;;;;;;5123430;29;20379;-75
2023/08/19 12:09:46;;;;;;;22.35;5.95;;;29.90;99.90;;;;;;5123682;28;20054;-75
2023/08/19 12:12:17;;;;;;;13.68;6.22;;;29.90;99.90;;;;;;5121668;29;20447;-76
2023/08/19 12:14:48;;;;;;;9.98;5.45;;;29.90;99.90;;;;;;5122160;29;20043;-75
2023/08/19 12:17:19;;;;;;;16.13;5.65;;;30.20;99.90;;;;;;5122523;28;20062;-74
2023/08/19 12:19:50;;;;;;;12.85;6.00;;;30.10;99.90;;;;;;5123040;29;20038;-75
2023/08/19 12:22:21;;;;;;;10.95;6.20;;;30.00;99.90;;;;;;5120882;28;20165;-78
2023/08/19 12:24:52;;;;;;;14.77;5.95;;;29.80;99.90;;;;;;5122399;29;20027;-75
2023/08/19 12:27:23;;;;;;;16.85;5.75;;;29.70;99.90;;;;;;5121803;29;20039;-76
2023/08/19 12:29:53;;;;;;;14.13;6.18;;;29.90;99.90;;;;;;5122337;29;20030;-77
2023/08/19 12:32:24;;;;;;;12.88;5.85;;;29.80;99.90;;;;;;5121799;28;20090;-77
2023/08/19 12:34:55;;;;;;;12.18;6.15;;;29.60;99.90;;;;;;5112897;28;20134;-77
2023/08/19 12:37:26;;;;;;;11.27;5.65;;;29.40;99.90;;;;;;5122914;28;20034;-75
2023/08/19 12:39:57;;;;;;;10.18;6.35;;;29.50;99.90;;;;;;5121594;29;20468;-76
2023/08/19 12:42:28;;;;;;;10.93;5.65;;;29.50;99.90;;;;;;5122874;28;20031;-76
2023/08/19 12:44:59;;;;;;;13.50;6.07;;;29.40;99.90;;;;;;5122723;29;20498;-76
2023/08/19 12:47:30;;;;;;;11.02;5.45;;;29.40;99.90;;;;;;5122869;28;20102;-76
2023/08/19 12:50:01;;;;;;;9.73;5.63;;;29.20;99.90;;;;;;5122250;29;20036;-74
2023/08/19 12:52:34;;;;;;;17.90;5.30;;;29.40;99.90;;;;;;5120872;29;20447;-76
2023/08/19 12:55:05;;;;;;;11.95;5.65;;;29.30;99.90;;;;;;5122065;29;20106;-77
2023/08/19 12:57:42;;;;;;;11.63;6.32;;;29.50;99.90;;;;;;5121950;28;20379;-74
2023/08/19 13:00:14;;;;;;;12.77;5.72;;;29.30;99.90;;;;;;5120758;29;20036;-75
2023/08/19 13:02:45;;;;;;;12.35;5.68;;;29.30;99.90;;;;;;5120706;28;20023;-74
2023/08/19 13:05:16;;;;;;;9.43;5.72;;;29.50;99.90;;;;;;5122647;28;20055;-76